Time;durP1;ratioP1;P1;durP2;ratioP2;P2;SDS_P1;SDS_P2;PMS_P1;PMS_P2;Temp;Humidity;BMP_temperature;BMP_pressure;BME280_temperature;BME280_humidity;BME280_pressure;Samples;Min_cycle;Max_cycle;Signal;HPM_P1;HPM_P2
2021/08/13 00:06:16;;;;;;;3.40;1.75;;;21.00;63.00;;;;;;21100240;28;20036;-20
2021/08/13 00:16:17;;;;;;;2.42;1.65;;;21.00;63.00;;;;;;21093494;28;20032;-20
2021/08/13 00:26:17;;;;;;;2.95;2.38;;;21.00;63.00;;;;;;21091916;28;20085;-20
2021/08/13 00:36:18;;;;;;;2.72;2.33;;;21.00;63.00;;;;;;21079829;28;20047;-20
2021/08/13 00:46:18;;;;;;;2.92;2.35;;;21.00;63.10;;;;;;21078362;28;20040;-20
2021/08/13 00:56:20;;;;;;;2.65;1.80;;;20.90;63.10;;;;;;21076626;28;20123;-20
2021/08/13 01:06:21;;;;;;;2.40;1.85;;;20.90;63.00;;;;;;21075742;28;20036;-20
2021/08/13 01:16:25;;;;;;;3.00;2.20;;;21.00;63.10;;;;;;21075567;28;20059;-20
2021/08/13 01:26:31;;;;;;;3.15;2.40;;;21.00;63.10;;;;;;21072652;28;20457;-19
2021/08/13 01:36:33;;;;;;;2.28;1.52;;;21.00;63.00;;;;;;21073795;28;20198;-19
2021/08/13 01:46:34;;;;;;;3.25;2.45;;;21.00;63.00;;;;;;21072350;28;20036;-19
2021/08/13 01:56:35;;;;;;;3.35;2.33;;;21.00;63.10;;;;;;21071969;28;20081;-19
2021/08/13 02:06:36;;;;;;;4.55;2.65;;;21.00;63.10;;;;;;21071004;28;20040;-19
2021/08/13 02:16:38;;;;;;;3.28;1.90;;;21.00;63.60;;;;;;21072990;28;20508;-19
2021/08/13 02:26:38;;;;;;;3.25;2.15;;;21.00;63.00;;;;;;21071105;28;20043;-19
2021/08/13 02:36:50;;;;;;;3.30;1.90;;;21.00;63.00;;;;;;21071135;28;20028;-19
2021/08/13 02:46:57;;;;;;;2.92;2.30;;;21.00;63.10;;;;;;21069936;28;20028;-19
2021/08/13 02:56:58;;;;;;;3.53;2.45;;;21.00;63.00;;;;;;21068885;28;20488;-19
2021/08/13 03:06:59;;;;;;;3.25;2.35;;;21.00;63.00;;;;;;21067462;28;20481;-19
2021/08/13 03:17:01;;;;;;;3.25;2.72;;;21.00;63.00;;;;;;21067369;28;20515;-19
2021/08/13 03:27:03;;;;;;;3.35;2.75;;;21.00;63.00;;;;;;21066279;28;20028;-19
2021/08/13 03:37:04;;;;;;;3.33;2.40;;;21.00;63.00;;;;;;21067690;28;20064;-19
2021/08/13 03:47:04;;;;;;;3.40;2.42;;;21.00;63.00;;;;;;21076056;28;20028;-20
2021/08/13 03:57:05;;;;;;;2.92;2.30;;;21.00;63.00;;;;;;21081491;28;20040;-19
2021/08/13 04:07:05;;;;;;;3.88;2.53;;;21.00;63.00;;;;;;21078987;28;20492;-20
2021/08/13 04:17:06;;;;;;;3.35;2.53;;;21.00;63.10;;;;;;21079462;28;20036;-20
2021/08/13 04:27:07;;;;;;;2.42;2.08;;;21.00;63.10;;;;;;21079926;28;20072;-20
2021/08/13 04:37:07;;;;;;;3.22;2.55;;;20.90;63.00;;;;;;21077456;28;20420;-20
2021/08/13 04:47:08;;;;;;;3.25;2.55;;;21.00;63.10;;;;;;21078291;28;20496;-20
2021/08/13 04:57:08;;;;;;;5.20;2.27;;;21.00;63.00;;;;;;21076441;28;20123;-20
2021/08/13 05:07:09;;;;;;;3.50;2.35;;;21.00;63.00;;;;;;21078717;28;20861;-20
2021/08/13 05:17:09;;;;;;;3.55;2.78;;;21.00;63.00;;;;;;21077479;28;20396;-20
2021/08/13 05:27:10;;;;;;;4.78;2.45;;;21.00;63.00;;;;;;21075678;28;20066;-20
2021/08/13 05:37:10;;;;;;;3.30;2.65;;;21.00;63.00;;;;;;21075209;28;20245;-20
2021/08/13 05:47:11;;;;;;;3.45;2.35;;;21.00;63.00;;;;;;21075244;28;20035;-20
2021/08/13 05:57:12;;;;;;;3.35;2.30;;;21.00;63.00;;;;;;21093956;28;20039;-20
2021/08/13 06:07:12;;;;;;;4.17;3.20;;;21.00;63.00;;;;;;21112185;28;20032;-20
2021/08/13 06:17:13;;;;;;;4.45;2.78;;;21.00;63.00;;;;;;21073126;28;20115;-20
2021/08/13 06:27:13;;;;;;;6.40;2.83;;;21.00;63.00;;;;;;21072794;28;20036;-20
2021/08/13 06:37:14;;;;;;;2.35;1.95;;;21.00;63.00;;;;;;21072206;28;20047;-20
2021/08/13 06:47:14;;;;;;;3.90;2.78;;;21.00;63.00;;;;;;21071434;28;20396;-21
2021/08/13 06:57:15;;;;;;;4.15;2.80;;;21.00;63.20;;;;;;21071036;28;20408;-20
2021/08/13 07:07:15;;;;;;;3.35;2.70;;;21.00;63.30;;;;;;21070553;28;20052;-20
2021/08/13 07:17:16;;;;;;;4.95;2.88;;;21.00;63.30;;;;;;21075243;28;20349;-20
2021/08/13 07:27:17;;;;;;;5.38;2.60;;;21.00;63.30;;;;;;21092853;28;20036;-21
2021/08/13 07:37:17;;;;;;;3.22;2.88;;;21.00;63.30;;;;;;21085841;28;20210;-20
2021/08/13 07:47:18;;;;;;;3.60;3.25;;;21.00;63.30;;;;;;21083318;28;20085;-21
2021/08/13 07:57:19;;;;;;;4.80;2.90;;;21.00;63.30;;;;;;21083355;28;20031;-20
2021/08/13 08:07:20;;;;;;;3.28;2.50;;;21.00;63.30;;;;;;21081329;28;20519;-20
2021/08/13 08:17:20;;;;;;;3.33;2.92;;;21.10;63.30;;;;;;21080641;28;20367;-20
2021/08/13 08:27:21;;;;;;;3.60;2.45;;;21.10;63.40;;;;;;21080003;28;20032;-20
2021/08/13 08:37:22;;;;;;;3.55;2.95;;;21.10;63.30;;;;;;21079304;28;20044;-20
2021/08/13 08:47:25;;;;;;;3.05;2.28;;;21.10;63.10;;;;;;21077627;28;20092;-20
2021/08/13 08:57:29;;;;;;;3.03;2.53;;;21.10;63.00;;;;;;21077922;28;20040;-20
2021/08/13 09:07:29;;;;;;;3.88;2.65;;;21.20;63.00;;;;;;21077176;28;20040;-20
2021/08/13 09:17:31;;;;;;;3.00;2.65;;;21.20;63.00;;;;;;21075824;28;20286;-20
2021/08/13 09:27:32;;;;;;;3.28;2.65;;;21.20;63.10;;;;;;21074980;28;20028;-20
2021/08/13 09:37:35;;;;;;;3.95;2.83;;;21.20;63.00;;;;;;21074379;28;20039;-19
2021/08/13 09:47:47;;;;;;;3.40;2.30;;;21.20;63.00;;;;;;21083461;28;20123;-20
2021/08/13 09:57:48;;;;;;;3.63;2.63;;;21.30;62.90;;;;;;21081413;28;20028;-20
2021/08/13 10:08:00;;;;;;;2.30;1.77;;;21.30;62.80;;;;;;21070916;28;20040;-20
2021/08/13 10:18:06;;;;;;;3.00;2.22;;;21.30;62.80;;;;;;21070650;28;20976;-20
2021/08/13 10:28:07;;;;;;;3.13;2.42;;;21.40;62.80;;;;;;21071030;28;20036;-20
2021/08/13 10:38:09;;;;;;;3.85;2.45;;;21.40;62.70;;;;;;21071498;28;20036;-20
2021/08/13 10:48:23;;;;;;;3.60;2.58;;;21.40;62.80;;;;;;21069882;28;20058;-20
2021/08/13 10:58:36;;;;;;;3.03;2.10;;;21.40;62.70;;;;;;21090957;28;20052;-20
2021/08/13 11:08:40;;;;;;;2.95;2.40;;;21.40;62.60;;;;;;21106926;22;20048;-21
2021/08/13 11:18:57;;;;;;;2.97;2.17;;;21.40;62.60;;;;;;21084174;28;20445;-21
2021/08/13 11:29:33;;;;;;;4.07;2.47;;;21.50;62.50;;;;;;21083126;28;20047;-20
2021/08/13 11:39:36;;;;;;;3.00;2.30;;;21.50;62.50;;;;;;20822002;28;20033;-19
2021/08/13 11:49:38;;;;;;;3.28;2.50;;;21.50;62.50;;;;;;20821109;28;20135;-20
2021/08/13 11:59:39;;;;;;;3.22;1.92;;;21.50;62.50;;;;;;20820179;28;20374;-20
2021/08/13 12:09:41;;;;;;;2.95;2.25;;;21.50;62.50;;;;;;20910134;28;20040;-21
2021/08/13 12:19:42;;;;;;;2.63;1.73;;;21.50;62.50;;;;;;21080146;28;20070;-20
2021/08/13 12:29:42;;;;;;;3.00;2.00;;;21.50;62.50;;;;;;21080220;28;20045;-20
2021/08/13 12:39:44;;;;;;;3.38;2.45;;;21.50;62.40;;;;;;21083146;28;20465;-21
2021/08/13 12:49:45;;;;;;;2.92;2.17;;;21.70;62.50;;;;;;21085820;28;20042;-20
2021/08/13 12:59:49;;;;;;;2.63;1.98;;;21.60;62.40;;;;;;21075261;28;20064;-21
2021/08/13 13:09:49;;;;;;;2.38;1.92;;;21.60;62.50;;;;;;21075497;28;20530;-21
2021/08/13 13:20:10;;;;;;;3.40;2.50;;;21.60;62.50;;;;;;21073157;28;20044;-20
2021/08/13 13:30:38;;;;;;;3.13;2.40;;;21.60;62.50;;;;;;21073900;28;20067;-21
2021/08/13 13:40:41;;;;;;;3.00;2.10;;;21.60;62.50;;;;;;21071146;28;20073;-21
2021/08/13 13:50:41;;;;;;;3.00;2.00;;;21.60;62.50;;;;;;21071623;28;20032;-21
2021/08/13 14:00:42;;;;;;;3.65;2.78;;;21.60;62.40;;;;;;21071477;28;20122;-21
2021/08/13 14:10:43;;;;;;;3.15;2.40;;;21.60;62.40;;;;;;21070177;28;20470;-21
2021/08/13 14:20:43;;;;;;;3.13;2.10;;;21.70;62.50;;;;;;21069724;28;20035;-21
2021/08/13 14:30:44;;;;;;;3.72;2.30;;;21.60;62.50;;;;;;21072686;28;20183;-21
2021/08/13 14:40:44;;;;;;;3.38;2.40;;;21.60;62.50;;;;;;21068653;28;20155;-20
2021/08/13 14:50:45;;;;;;;2.83;1.95;;;21.70;62.60;;;;;;21068491;28;20119;-21
2021/08/13 15:00:45;;;;;;;2.92;2.20;;;21.60;62.60;;;;;;21068749;28;20089;-21
2021/08/13 15:10:47;;;;;;;3.65;1.92;;;21.70;62.70;;;;;;21067417;28;20050;-20
2021/08/13 15:20:48;;;;;;;2.50;2.00;;;21.70;62.70;;;;;;21067476;28;20494;-21
2021/08/13 15:30:48;;;;;;;3.60;2.17;;;21.70;62.70;;;;;;21066840;28;20043;-21
2021/08/13 15:40:49;;;;;;;3.63;2.53;;;21.70;62.80;;;;;;21071485;28;20044;-20
2021/08/13 15:50:50;;;;;;;2.92;2.00;;;21.60;62.70;;;;;;21082014;28;20077;-20
2021/08/13 16:00:51;;;;;;;3.30;2.60;;;21.60;62.70;;;;;;21081688;28;20043;-20
2021/08/13 16:10:51;;;;;;;3.15;2.05;;;21.70;62.70;;;;;;21081283;28;20032;-20
2021/08/13 16:20:52;;;;;;;2.90;2.05;;;21.70;62.70;;;;;;21089811;28;20232;-19
2021/08/13 16:30:52;;;;;;;5.45;2.22;;;21.70;62.80;;;;;;21078439;28;20028;-19
2021/08/13 16:40:55;;;;;;;2.40;1.80;;;21.70;62.80;;;;;;21077052;28;20491;-19
2021/08/13 16:50:58;;;;;;;3.05;2.35;;;21.70;62.90;;;;;;21078128;28;20039;-21
2021/08/13 17:00:59;;;;;;;4.45;2.40;;;21.70;62.90;;;;;;21076229;28;20032;-20
2021/08/13 17:11:01;;;;;;;4.35;2.25;;;21.60;62.90;;;;;;21036539;22;20531;-21
2021/08/13 17:21:02;;;;;;;3.00;1.80;;;21.60;62.90;;;;;;20974124;28;20500;-20
2021/08/13 17:31:02;;;;;;;2.90;1.98;;;21.60;62.90;;;;;;20997957;28;20040;-20
2021/08/13 17:41:03;;;;;;;4.83;2.53;;;21.60;62.80;;;;;;20988104;28;20048;-21
2021/08/13 17:51:03;;;;;;;2.78;1.88;;;21.60;62.80;;;;;;20994728;28;20949;-20
2021/08/13 18:01:04;;;;;;;2.40;1.83;;;21.60;62.90;;;;;;20988407;28;20028;-22
2021/08/13 18:11:05;;;;;;;2.88;2.17;;;21.60;62.90;;;;;;20988881;28;20454;-21
2021/08/13 18:21:06;;;;;;;3.08;1.73;;;21.50;62.80;;;;;;20987025;28;20382;-21
2021/08/13 18:31:07;;;;;;;3.13;2.10;;;21.50;62.80;;;;;;21001272;28;20044;-21
2021/08/13 18:41:11;;;;;;;3.25;2.03;;;21.50;62.80;;;;;;20985663;28;20108;-21
2021/08/13 18:51:12;;;;;;;2.78;2.40;;;21.50;62.70;;;;;;20984354;28;20033;-22
2021/08/13 19:01:12;;;;;;;2.78;2.30;;;21.50;62.70;;;;;;20984324;28;20550;-21
2021/08/13 19:11:14;;;;;;;2.25;1.77;;;21.50;62.60;;;;;;20983957;28;20051;-20
2021/08/13 19:21:14;;;;;;;2.08;1.63;;;21.50;62.70;;;;;;21004163;28;20051;-20
2021/08/13 19:31:15;;;;;;;2.33;1.70;;;21.50;62.70;;;;;;20998723;28;20082;-21
2021/08/13 19:41:16;;;;;;;5.00;2.30;;;21.50;62.70;;;;;;20997937;28;20037;-21
2021/08/13 19:51:17;;;;;;;2.53;1.67;;;21.50;62.70;;;;;;20997092;28;20067;-20
2021/08/13 20:01:18;;;;;;;2.95;2.45;;;21.50;62.70;;;;;;20997012;28;20512;-20
2021/08/13 20:11:19;;;;;;;3.08;1.88;;;21.50;62.70;;;;;;20995824;28;20037;-20
2021/08/13 20:21:19;;;;;;;2.83;1.75;;;21.50;62.80;;;;;;20995743;28;20037;-20
2021/08/13 20:31:20;;;;;;;2.45;1.90;;;21.50;62.80;;;;;;20993414;28;20024;-20
2021/08/13 20:41:22;;;;;;;2.60;1.73;;;21.50;62.80;;;;;;20994074;28;20035;-20
2021/08/13 20:51:22;;;;;;;3.25;2.20;;;21.50;62.80;;;;;;20992545;28;20115;-19
2021/08/13 21:01:23;;;;;;;2.50;1.83;;;21.50;62.80;;;;;;20993652;28;20071;-20
2021/08/13 21:11:23;;;;;;;3.42;2.30;;;21.50;62.90;;;;;;20991569;28;20049;-20
2021/08/13 21:21:24;;;;;;;2.60;1.80;;;21.50;62.90;;;;;;20990513;28;20455;-19
2021/08/13 21:31:24;;;;;;;2.50;1.75;;;21.50;62.80;;;;;;20991828;28;20040;-20
2021/08/13 21:41:25;;;;;;;3.05;2.40;;;21.50;62.80;;;;;;20989462;28;20029;-22
2021/08/13 21:51:26;;;;;;;3.10;2.15;;;21.50;62.80;;;;;;20987894;28;20111;-20
2021/08/13 22:01:26;;;;;;;3.13;1.83;;;21.50;62.70;;;;;;20987862;28;20037;-20
2021/08/13 22:11:27;;;;;;;3.00;2.00;;;21.50;62.70;;;;;;20991811;28;20045;-20
2021/08/13 22:21:31;;;;;;;2.78;2.17;;;21.40;62.60;;;;;;20986607;28;20816;-20
2021/08/13 22:31:31;;;;;;;3.35;2.25;;;21.50;62.60;;;;;;20989439;28;20421;-19
2021/08/13 22:41:32;;;;;;;3.90;1.63;;;21.40;62.50;;;;;;20989318;28;20071;-20
2021/08/13 22:51:33;;;;;;;2.45;1.70;;;21.50;62.60;;;;;;20984698;28;20039;-21
2021/08/13 23:01:33;;;;;;;2.70;1.77;;;21.50;62.70;;;;;;21005757;28;20036;-20
2021/08/13 23:11:34;;;;;;;2.93;1.93;;;21.50;62.70;;;;;;20894831;23;20042;-21
2021/08/13 23:21:35;;;;;;;2.30;1.70;;;21.40;62.50;;;;;;20818892;28;20440;-21
2021/08/13 23:31:35;;;;;;;3.38;2.00;;;21.40;62.50;;;;;;20821738;28;20044;-21
2021/08/13 23:41:37;;;;;;;2.55;1.35;;;21.50;62.60;;;;;;20816803;28;20033;-21
2021/08/13 23:51:38;;;;;;;1.90;1.35;;;21.50;62.60;;;;;;20817047;28;20022;-21
